createdAt,value
2023-04-08T00:01:32.500Z,102306.38
2023-04-08T00:04:02.156Z,102303.84
2023-04-08T00:06:31.648Z,102314.47
2023-04-08T00:08:59.558Z,102318.28
2023-04-08T00:11:27.529Z,102305.09
2023-04-08T00:13:55.423Z,102303.22
2023-04-08T00:16:23.596Z,102304.91
2023-04-08T00:18:52.260Z,102307.03
2023-04-08T00:21:21.895Z,102308.41
2023-04-08T00:23:50.748Z,102306.91
2023-04-08T00:26:18.731Z,102309.78
2023-04-08T00:28:47.178Z,102306.28
2023-04-08T00:31:15.114Z,102312.44
2023-04-08T00:33:43.233Z,102310.19
2023-04-08T00:36:12.138Z,102307.75
2023-04-08T00:38:41.598Z,102302.13
2023-04-08T00:41:09.520Z,102303.50
2023-04-08T00:43:37.414Z,102308.50
2023-04-08T00:46:06.700Z,102302.88
2023-04-08T00:48:35.505Z,102301.41
2023-04-08T00:51:03.630Z,102305.75
2023-04-08T00:53:32.384Z,102310.84
2023-04-08T00:56:01.840Z,102308.19
2023-04-08T00:58:30.235Z,102303.63
2023-04-08T01:01:01.756Z,102310.66
2023-04-08T01:03:35.528Z,102307.13
2023-04-08T01:06:07.963Z,102308.09
2023-04-08T01:08:37.866Z,102309.13
2023-04-08T01:11:07.571Z,102308.09
2023-04-08T01:13:36.400Z,102317.63
2023-04-08T01:16:04.928Z,102308.69
2023-04-08T01:18:32.862Z,102307.09
2023-04-08T01:21:00.846Z,102313.16
2023-04-08T01:23:33.040Z,102316.34
2023-04-08T01:26:02.366Z,102306.59
2023-04-08T01:28:31.022Z,102310.84
2023-04-08T01:31:01.069Z,102319.50
2023-04-08T01:33:29.346Z,102307.25
2023-04-08T01:35:57.665Z,102305.97
2023-04-08T01:38:26.500Z,102313.56
2023-04-08T01:40:54.628Z,102316.41
2023-04-08T01:43:24.955Z,102317.34
2023-04-08T01:45:54.613Z,102319.06
2023-04-08T01:48:22.557Z,102322.75
2023-04-08T01:50:51.321Z,102318.81
2023-04-08T01:53:19.246Z,102318.94
2023-04-08T01:55:47.157Z,102315.44
2023-04-08T01:58:18.546Z,102332.19
2023-04-08T02:00:47.899Z,102328.56
2023-04-08T02:03:16.376Z,102315.31
2023-04-08T02:05:47.235Z,102330.19
2023-04-08T02:08:15.328Z,102320.53
2023-04-08T02:10:43.271Z,102324.44
2023-04-08T02:13:11.169Z,102323.13
2023-04-08T02:15:39.966Z,102327.69
2023-04-08T02:18:12.363Z,102322.59
2023-04-08T02:20:43.338Z,102325.97
2023-04-08T02:23:16.589Z,102317.09
2023-04-08T02:25:46.431Z,102319.00
2023-04-08T02:28:14.378Z,102327.34
2023-04-08T02:30:43.731Z,102316.88
2023-04-08T02:33:16.248Z,102322.03
2023-04-08T02:35:44.622Z,102319.28
2023-04-08T02:38:12.580Z,102315.78
2023-04-08T02:40:40.548Z,102319.19
2023-04-08T02:43:08.604Z,102320.91
2023-04-08T02:45:39.264Z,102322.78
2023-04-08T02:48:07.670Z,102319.19
2023-04-08T02:50:36.991Z,102326.59
2023-04-08T02:53:05.084Z,102322.34
2023-04-08T02:55:34.654Z,102323.38
2023-04-08T02:58:02.502Z,102323.38
2023-04-08T03:00:30.528Z,102325.09
2023-04-08T03:02:58.573Z,102328.50
2023-04-08T03:05:27.237Z,102328.31
2023-04-08T03:07:56.611Z,102310.50
2023-04-08T03:10:24.650Z,102320.91
2023-04-08T03:12:52.623Z,102317.50
2023-04-08T03:15:20.634Z,102317.50
2023-04-08T03:17:48.616Z,102321.31
2023-04-08T03:20:16.688Z,102317.91
2023-04-08T03:22:44.666Z,102322.66
2023-04-08T03:25:14.065Z,102331.19
2023-04-08T03:27:42.031Z,102335.56
2023-04-08T03:30:10.387Z,102332.94
2023-04-08T03:32:38.434Z,102333.50
2023-04-08T03:35:07.174Z,102337.09
2023-04-08T03:37:36.500Z,102333.03
2023-04-08T03:40:04.676Z,102345.38
2023-04-08T03:42:35.100Z,102335.00
2023-04-08T03:45:04.810Z,102337.78
2023-04-08T03:47:32.737Z,102342.50
2023-04-08T03:50:00.659Z,102338.50
2023-04-08T03:52:28.595Z,102343.38
2023-04-08T03:54:57.409Z,102344.88
2023-04-08T03:57:25.283Z,102342.34
2023-04-08T03:59:55.185Z,102341.69
2023-04-08T04:02:23.222Z,102351.94
2023-04-08T04:04:51.464Z,102356.25
2023-04-08T04:07:19.449Z,102361.28
2023-04-08T04:09:47.497Z,102359.09
2023-04-08T04:12:15.464Z,102358.63
2023-04-08T04:14:43.452Z,102357.00
2023-04-08T04:17:12.915Z,102363.16
2023-04-08T04:19:40.843Z,102352.56
2023-04-08T04:22:09.932Z,102360.72
2023-04-08T04:24:37.837Z,102356.28
2023-04-08T04:27:05.714Z,102359.47
2023-04-08T04:29:33.611Z,102363.53
2023-04-08T04:32:01.714Z,102365.13
2023-04-08T04:34:31.225Z,102365.13
2023-04-08T04:36:59.118Z,102367.88
2023-04-08T04:39:27.468Z,102352.75
2023-04-08T04:41:55.493Z,102362.97
2023-04-08T04:44:24.123Z,102362.47
2023-04-08T04:46:52.195Z,102368.31
2023-04-08T04:49:20.632Z,102359.25
2023-04-08T04:51:50.311Z,102366.88
2023-04-08T04:54:18.405Z,102363.06
2023-04-08T04:56:46.368Z,102361.41
2023-04-08T04:59:14.423Z,102365.84
2023-04-08T05:01:42.493Z,102356.09
2023-04-08T05:04:10.589Z,102367.34
2023-04-08T05:06:38.659Z,102353.78
2023-04-08T05:09:08.107Z,102367.59
2023-04-08T05:11:36.229Z,102366.41
2023-04-08T05:14:04.146Z,102357.34
2023-04-08T05:16:32.381Z,102366.78
2023-04-08T05:19:00.444Z,102371.03
2023-04-08T05:21:28.470Z,102372.81
2023-04-08T05:23:56.566Z,102363.94
2023-04-08T05:26:26.710Z,102361.28
2023-04-08T05:28:56.772Z,102374.22
2023-04-08T05:31:24.696Z,102368.81
2023-04-08T05:33:52.793Z,102379.41
2023-04-08T05:36:20.734Z,102373.19
2023-04-08T05:38:49.062Z,102375.25
2023-04-08T05:41:17.094Z,102371.88
2023-04-08T05:43:46.442Z,102374.63
2023-04-08T05:46:14.487Z,102381.63
2023-04-08T05:48:42.419Z,102385.84
2023-04-08T05:51:14.911Z,102378.88
2023-04-08T05:53:42.902Z,102384.91
2023-04-08T05:56:10.820Z,102382.06
2023-04-08T05:58:39.226Z,102385.34
2023-04-08T06:01:08.535Z,102385.91
2023-04-08T06:03:36.614Z,102382.94
2023-04-08T06:06:04.745Z,102384.44
2023-04-08T06:08:32.709Z,102373.44
2023-04-08T06:11:00.805Z,102382.97
2023-04-08T06:13:32.764Z,102388.94
2023-04-08T06:16:00.913Z,102391.25
2023-04-08T06:18:30.132Z,102385.75
2023-04-08T06:20:59.656Z,102390.66
2023-04-08T06:23:27.772Z,102405.47
2023-04-08T06:25:55.720Z,102408.69
2023-04-08T06:28:23.728Z,102410.16
2023-04-08T06:30:51.734Z,102415.28
2023-04-08T06:33:19.813Z,102418.69
2023-04-08T06:35:49.421Z,102418.25
2023-04-08T06:38:17.380Z,102419.81
2023-04-08T06:40:45.579Z,102425.03
2023-04-08T06:43:13.519Z,102424.09
2023-04-08T06:45:42.996Z,102421.25
2023-04-08T06:48:10.934Z,102422.75
2023-04-08T06:50:38.889Z,102439.28
2023-04-08T06:53:10.637Z,102435.50
2023-04-08T06:55:38.528Z,102441.41
2023-04-08T06:58:06.609Z,102447.19
2023-04-08T07:00:34.634Z,102450.25
2023-04-08T07:03:02.628Z,102448.13
2023-04-08T07:05:30.834Z,102448.63
2023-04-08T07:07:58.758Z,102453.75
2023-04-08T07:10:28.004Z,102455.44
2023-04-08T07:12:56.900Z,102462.22
2023-04-08T07:15:24.976Z,102456.72
2023-04-08T07:17:52.914Z,102461.59
2023-04-08T07:20:20.943Z,102457.66
2023-04-08T07:22:48.823Z,102460.94
2023-04-08T07:25:16.986Z,102468.69
2023-04-08T07:27:46.242Z,102454.97
2023-04-08T07:30:14.309Z,102459.72
2023-04-08T07:32:42.274Z,102461.84
2023-04-08T07:35:10.447Z,102460.44
2023-04-08T07:37:38.445Z,102463.38
2023-04-08T07:40:07.654Z,102462.72
2023-04-08T07:42:35.676Z,102468.94
2023-04-08T07:45:05.541Z,102471.81
2023-04-08T07:47:33.471Z,102474.75
2023-04-08T07:50:01.538Z,102474.06
2023-04-08T07:52:29.846Z,102473.63
2023-04-08T07:54:57.800Z,102471.47
2023-04-08T07:57:27.473Z,102479.94
2023-04-08T07:59:55.431Z,102481.06
2023-04-08T08:02:24.884Z,102485.81
2023-04-08T08:04:53.029Z,102486.81
2023-04-08T08:07:21.198Z,102493.38
2023-04-08T08:09:49.331Z,102493.75
2023-04-08T08:12:17.603Z,102495.19
2023-04-08T08:14:45.508Z,102491.94
2023-04-08T08:17:13.583Z,102492.94
2023-04-08T08:19:42.882Z,102493.91
2023-04-08T08:22:10.957Z,102489.22
2023-04-08T08:24:40.154Z,102487.28
2023-04-08T08:27:08.192Z,102493.34
2023-04-08T08:29:37.093Z,102490.03
2023-04-08T08:32:05.076Z,102501.91
2023-04-08T08:34:33.504Z,102494.91
2023-04-08T08:37:02.932Z,102501.91
2023-04-08T08:39:30.988Z,102501.56
2023-04-08T08:41:58.997Z,102498.63
2023-04-08T08:44:27.147Z,102504.59
2023-04-08T08:46:55.130Z,102504.09
2023-04-08T08:49:23.979Z,102514.03
2023-04-08T08:51:52.150Z,102501.66
2023-04-08T08:54:21.818Z,102503.34
2023-04-08T08:56:50.039Z,102505.28
2023-04-08T08:59:18.188Z,102493.53
2023-04-08T09:01:46.385Z,102495.22
2023-04-08T09:04:17.170Z,102495.34
2023-04-08T09:06:46.730Z,102494.84
2023-04-08T09:09:14.906Z,102487.91
2023-04-08T09:11:47.248Z,102494.91
2023-04-08T09:14:22.276Z,102503.72
2023-04-08T09:16:50.832Z,102498.34
2023-04-08T09:19:18.824Z,102499.88
2023-04-08T09:21:47.755Z,102483.31
2023-04-08T09:24:29.025Z,102497.59
2023-04-08T09:26:58.587Z,102491.50
2023-04-08T09:29:30.065Z,102498.56
2023-04-08T09:32:00.815Z,102496.22
2023-04-08T09:34:29.730Z,102496.53
2023-04-08T09:36:57.797Z,102508.69
2023-04-08T09:39:26.486Z,102511.78
2023-04-08T09:41:55.131Z,102502.00
2023-04-08T09:44:24.770Z,102514.13
2023-04-08T09:46:59.114Z,102501.78
2023-04-08T09:49:28.398Z,102511.94
2023-04-08T09:52:01.002Z,102510.13
2023-04-08T09:54:33.428Z,102508.59
2023-04-08T09:57:06.079Z,102511.97
2023-04-08T09:59:39.140Z,102509.22
2023-04-08T10:02:14.135Z,102504.69
2023-04-08T10:04:43.929Z,102495.13
2023-04-08T10:07:14.205Z,102487.25
2023-04-08T10:09:43.293Z,102492.44
2023-04-08T10:12:11.403Z,102484.94
2023-04-08T10:14:48.060Z,102488.03
2023-04-08T10:17:26.468Z,102485.03
2023-04-08T10:19:54.878Z,102488.00
2023-04-08T10:22:48.281Z,102494.28
2023-04-08T10:25:30.678Z,102487.00
2023-04-08T10:27:58.667Z,102486.66
2023-04-08T10:30:47.318Z,102485.81
2023-04-08T10:33:17.362Z,102487.63
2023-04-08T10:35:48.593Z,102469.09
2023-04-08T10:38:17.857Z,102490.00
2023-04-08T10:40:46.108Z,102482.47
2023-04-08T10:43:16.196Z,102475.19
2023-04-08T10:45:48.572Z,102482.63
2023-04-08T10:48:18.894Z,102481.63
2023-04-08T10:50:53.820Z,102477.78
2023-04-08T10:53:27.095Z,102478.22
2023-04-08T10:55:55.160Z,102462.22
2023-04-08T10:58:23.281Z,102457.47
2023-04-08T11:00:55.698Z,102454.81
2023-04-08T11:03:23.974Z,102463.50
2023-04-08T11:05:52.676Z,102453.41
2023-04-08T11:08:21.293Z,102450.88
2023-04-08T11:10:49.613Z,102449.44
2023-04-08T11:13:19.061Z,102458.41
2023-04-08T11:15:52.122Z,102451.69
2023-04-08T11:18:21.937Z,102447.66
2023-04-08T11:20:51.817Z,102441.88
2023-04-08T11:23:19.955Z,102443.47
2023-04-08T11:25:49.077Z,102435.81
2023-04-08T11:28:18.032Z,102444.28
2023-04-08T11:30:46.218Z,102445.03
2023-04-08T11:33:14.630Z,102445.75
2023-04-08T11:35:47.944Z,102445.50
2023-04-08T11:38:16.093Z,102445.56
2023-04-08T11:40:53.549Z,102444.66
2023-04-08T11:43:22.277Z,102442.66
2023-04-08T11:45:50.835Z,102436.25
2023-04-08T11:48:19.481Z,102434.41
2023-04-08T11:51:03.648Z,102445.69
2023-04-08T11:53:32.274Z,102434.94
2023-04-08T11:56:00.514Z,102433.25
2023-04-08T11:58:28.692Z,102425.84
2023-04-08T12:00:57.704Z,102436.97
2023-04-08T12:03:26.082Z,102448.22
2023-04-08T12:05:56.009Z,102451.78
2023-04-08T12:08:24.266Z,102437.66
2023-04-08T12:10:59.674Z,102453.47
2023-04-08T12:13:31.997Z,102444.34
2023-04-08T12:16:00.063Z,102444.47
2023-04-08T12:18:28.319Z,102435.50
2023-04-08T12:20:58.154Z,102437.38
2023-04-08T12:23:26.306Z,102436.56
2023-04-08T12:25:54.443Z,102448.88
2023-04-08T12:28:23.275Z,102444.66
2023-04-08T12:30:51.647Z,102458.00
2023-04-08T12:33:19.672Z,102459.19
2023-04-08T12:35:47.615Z,102442.25
2023-04-08T12:38:17.508Z,102449.78
2023-04-08T12:40:45.533Z,102452.13
2023-04-08T12:43:13.892Z,102459.13
2023-04-08T12:45:42.685Z,102454.19
2023-04-08T12:48:10.925Z,102446.41
2023-04-08T12:50:39.243Z,102448.09
2023-04-08T12:53:07.227Z,102444.41
2023-04-08T12:55:39.381Z,102452.44
2023-04-08T12:58:07.551Z,102453.09
2023-04-08T13:00:38.317Z,102439.75
2023-04-08T13:03:07.370Z,102436.09
2023-04-08T13:05:43.386Z,102436.44
2023-04-08T13:08:12.464Z,102441.66
2023-04-08T13:10:42.814Z,102437.63
2023-04-08T13:13:12.652Z,102440.44
2023-04-08T13:15:43.925Z,102431.75
2023-04-08T13:18:12.006Z,102437.84
2023-04-08T13:20:40.433Z,102442.56
2023-04-08T13:23:08.490Z,102441.94
2023-04-08T13:25:36.511Z,102444.66
2023-04-08T13:28:06.117Z,102447.69
2023-04-08T13:30:34.353Z,102444.81
2023-04-08T13:33:04.961Z,102442.28
2023-04-08T13:35:33.268Z,102438.53
2023-04-08T13:38:01.423Z,102431.47
2023-04-08T13:40:30.397Z,102437.09
2023-04-08T13:43:00.829Z,102439.00
2023-04-08T13:45:30.399Z,102436.25
2023-04-08T13:48:00.241Z,102433.50
2023-04-08T13:50:28.559Z,102423.75
2023-04-08T13:52:57.478Z,102428.88
2023-04-08T13:55:26.187Z,102439.84
2023-04-08T13:57:56.457Z,102432.59
2023-04-08T14:00:27.185Z,102427.88
2023-04-08T14:02:56.786Z,102425.53
2023-04-08T14:05:27.136Z,102427.56
2023-04-08T14:07:55.700Z,102418.09
2023-04-08T14:10:23.871Z,102433.88
2023-04-08T14:12:54.768Z,102429.84
2023-04-08T14:15:22.770Z,102415.41
2023-04-08T14:17:50.888Z,102415.84
2023-04-08T14:20:21.025Z,102421.81
2023-04-08T14:22:49.176Z,102419.69
2023-04-08T14:25:17.483Z,102430.19
2023-04-08T14:27:57.313Z,102428.41
2023-04-08T14:30:27.310Z,102417.94
2023-04-08T14:32:55.767Z,102423.16
2023-04-08T14:35:25.521Z,102425.81
2023-04-08T14:37:53.800Z,102428.47
2023-04-08T14:40:22.342Z,102418.38
2023-04-08T14:42:54.452Z,102425.13
2023-04-08T14:45:22.709Z,102414.03
2023-04-08T14:47:51.730Z,102420.13
2023-04-08T14:50:20.055Z,102407.28
2023-04-08T14:52:51.041Z,102407.13
2023-04-08T14:55:19.184Z,102410.69
2023-04-08T14:57:47.188Z,102409.03
2023-04-08T15:00:18.080Z,102401.94
2023-04-08T15:02:46.296Z,102391.50
2023-04-08T15:05:14.477Z,102392.34
2023-04-08T15:07:42.979Z,102393.34
2023-04-08T15:10:12.965Z,102398.66
2023-04-08T15:12:41.035Z,102402.00
2023-04-08T15:15:10.493Z,102390.28
2023-04-08T15:17:40.398Z,102396.88
2023-04-08T15:20:10.595Z,102381.16
2023-04-08T15:22:38.640Z,102383.84
2023-04-08T15:25:07.544Z,102391.97
2023-04-08T15:27:37.947Z,102394.19
2023-04-08T15:30:09.464Z,102394.16
2023-04-08T15:32:39.995Z,102387.56
2023-04-08T15:35:11.309Z,102395.09
2023-04-08T15:37:39.744Z,102391.78
2023-04-08T15:40:09.953Z,102390.81
2023-04-08T15:42:39.431Z,102386.44
2023-04-08T15:45:09.590Z,102383.44
2023-04-08T15:47:37.815Z,102382.06
2023-04-08T15:50:06.521Z,102381.59
2023-04-08T15:52:35.671Z,102387.13
2023-04-08T15:55:03.816Z,102385.97
2023-04-08T15:57:32.551Z,102386.13
2023-04-08T16:00:11.161Z,102378.72
2023-04-08T16:02:42.448Z,102384.13
2023-04-08T16:05:12.466Z,102375.34
2023-04-08T16:07:42.181Z,102382.75
2023-04-08T16:10:11.883Z,102379.88
2023-04-08T16:12:39.964Z,102382.09
2023-04-08T16:15:10.278Z,102389.16
2023-04-08T16:17:38.378Z,102375.34
2023-04-08T16:20:07.586Z,102382.56
2023-04-08T16:22:36.882Z,102381.41
2023-04-08T16:25:05.473Z,102378.34
2023-04-08T16:27:33.722Z,102369.22
2023-04-08T16:30:03.941Z,102367.16
2023-04-08T16:32:34.043Z,102369.81
2023-04-08T16:35:02.215Z,102358.56
2023-04-08T16:37:30.489Z,102357.72
2023-04-08T16:40:01.623Z,102376.19
2023-04-08T16:42:29.751Z,102386.13
2023-04-08T16:44:58.050Z,102382.84
2023-04-08T16:47:26.494Z,102382.84
2023-04-08T16:49:55.994Z,102385.13
2023-04-08T16:52:24.155Z,102383.72
2023-04-08T16:54:52.406Z,102384.28
2023-04-08T16:57:20.500Z,102374.81
2023-04-08T16:59:48.568Z,102383.44
2023-04-08T17:02:16.721Z,102385.38
2023-04-08T17:04:44.685Z,102383.31
2023-04-08T17:07:14.594Z,102382.25
2023-04-08T17:09:42.722Z,102380.88
2023-04-08T17:12:10.669Z,102382.88
2023-04-08T17:14:38.610Z,102387.31
2023-04-08T17:17:06.633Z,102387.38
2023-04-08T17:19:34.610Z,102389.22
2023-04-08T17:22:02.771Z,102386.72
2023-04-08T17:24:32.101Z,102384.63
2023-04-08T17:27:00.676Z,102388.56
2023-04-08T17:29:28.574Z,102386.41
2023-04-08T17:31:56.607Z,102386.56
2023-04-08T17:34:24.864Z,102387.75
2023-04-08T17:36:55.241Z,102382.47
2023-04-08T17:39:23.259Z,102393.56
2023-04-08T17:41:54.395Z,102388.41
2023-04-08T17:44:22.414Z,102392.56
2023-04-08T17:46:50.389Z,102400.47
2023-04-08T17:49:18.594Z,102394.31
2023-04-08T17:51:46.526Z,102395.19
2023-04-08T17:54:14.747Z,102394.69
2023-04-08T17:56:44.668Z,102400.19
2023-04-08T17:59:14.586Z,102395.03
2023-04-08T18:01:42.804Z,102395.34
2023-04-08T18:04:12.459Z,102396.34
2023-04-08T18:06:40.702Z,102397.72
2023-04-08T18:09:08.817Z,102391.09
2023-04-08T18:11:37.051Z,102400.38
2023-04-08T18:14:06.357Z,102391.41
2023-04-08T18:16:36.128Z,102396.72
2023-04-08T18:19:04.594Z,102386.97
2023-04-08T18:21:32.803Z,102391.06
2023-04-08T18:24:01.084Z,102391.63
2023-04-08T18:26:29.548Z,102386.94
2023-04-08T18:28:57.688Z,102391.72
2023-04-08T18:31:25.738Z,102392.97
2023-04-08T18:33:55.198Z,102395.78
2023-04-08T18:36:23.484Z,102386.34
2023-04-08T18:38:51.477Z,102398.03
2023-04-08T18:41:20.984Z,102390.41
2023-04-08T18:43:49.115Z,102387.41
2023-04-08T18:46:17.947Z,102381.91
2023-04-08T18:48:45.987Z,102387.75
2023-04-08T18:51:16.676Z,102391.94
2023-04-08T18:53:44.779Z,102395.16
2023-04-08T18:56:16.054Z,102389.63
2023-04-08T18:58:44.575Z,102399.16
2023-04-08T19:01:12.538Z,102393.66
2023-04-08T19:03:40.569Z,102392.31
2023-04-08T19:06:09.096Z,102393.72
2023-04-08T19:08:38.481Z,102387.19
2023-04-08T19:11:06.796Z,102387.44
2023-04-08T19:13:34.994Z,102392.66
2023-04-08T19:16:03.053Z,102402.50
2023-04-08T19:18:31.333Z,102393.91
2023-04-08T19:20:59.629Z,102394.28
2023-04-08T19:23:27.563Z,102379.75
2023-04-08T19:25:56.931Z,102382.44
2023-04-08T19:28:24.990Z,102390.72
2023-04-08T19:30:52.954Z,102390.94
2023-04-08T19:33:21.117Z,102385.88
2023-04-08T19:35:51.105Z,102391.44
2023-04-08T19:38:19.117Z,102389.88
2023-04-08T19:40:48.097Z,102391.97
2023-04-08T19:43:17.858Z,102391.13
2023-04-08T19:45:48.711Z,102388.84
2023-04-08T19:48:18.101Z,102385.69
2023-04-08T19:50:46.240Z,102388.53
2023-04-08T19:53:14.275Z,102389.59
2023-04-08T19:55:42.559Z,102377.50
2023-04-08T19:58:10.812Z,102382.13
2023-04-08T20:00:40.156Z,102393.75
2023-04-08T20:03:08.830Z,102381.66
2023-04-08T20:05:37.064Z,102389.06
2023-04-08T20:08:05.352Z,102383.00
2023-04-08T20:10:35.588Z,102388.31
2023-04-08T20:13:03.900Z,102386.91
2023-04-08T20:15:32.223Z,102376.47
2023-04-08T20:18:01.935Z,102369.09
2023-04-08T20:20:30.117Z,102377.09
2023-04-08T20:22:58.217Z,102376.41
2023-04-08T20:25:26.112Z,102379.41
2023-04-08T20:27:54.221Z,102383.44
2023-04-08T20:30:22.749Z,102373.00
2023-04-08T20:32:50.767Z,102368.91
2023-04-08T20:35:21.131Z,102373.50
2023-04-08T20:37:49.178Z,102370.84
2023-04-08T20:40:18.354Z,102367.50
2023-04-08T20:42:46.659Z,102371.97
2023-04-08T20:45:14.693Z,102366.03
2023-04-08T20:47:44.576Z,102370.63
2023-04-08T20:50:12.671Z,102364.81
2023-04-08T20:52:42.126Z,102366.75
2023-04-08T20:55:10.983Z,102368.72
2023-04-08T20:57:38.958Z,102364.59
2023-04-08T21:00:07.975Z,102370.88
2023-04-08T21:02:36.422Z,102362.19
2023-04-08T21:05:04.901Z,102356.88
2023-04-08T21:07:32.894Z,102365.81
2023-04-08T21:10:02.134Z,102353.47
2023-04-08T21:12:30.071Z,102357.06
2023-04-08T21:14:58.067Z,102354.63
2023-04-08T21:17:26.119Z,102363.75
2023-04-08T21:19:54.073Z,102362.16
2023-04-08T21:22:22.139Z,102358.06
2023-04-08T21:24:50.346Z,102363.63
2023-04-08T21:27:19.679Z,102354.66
2023-04-08T21:29:47.549Z,102358.28
2023-04-08T21:32:16.373Z,102360.38
2023-04-08T21:34:44.376Z,102360.72
2023-04-08T21:37:12.516Z,102353.69
2023-04-08T21:39:40.483Z,102352.25
2023-04-08T21:42:08.384Z,102345.22
2023-04-08T21:44:38.190Z,102357.56
2023-04-08T21:47:06.177Z,102354.91
2023-04-08T21:49:34.126Z,102344.47
2023-04-08T21:52:03.224Z,102340.16
2023-04-08T21:54:31.159Z,102339.31
2023-04-08T21:56:59.177Z,102338.09
2023-04-08T21:59:27.734Z,102344.72
2023-04-08T22:01:57.233Z,102336.72
2023-04-08T22:04:25.253Z,102336.72
2023-04-08T22:06:53.210Z,102326.22
2023-04-08T22:09:21.163Z,102329.00
2023-04-08T22:11:49.078Z,102329.84
2023-04-08T22:14:17.499Z,102333.38
2023-04-08T22:16:45.848Z,102326.47
2023-04-08T22:19:15.532Z,102323.22
2023-04-08T22:21:43.587Z,102317.75
2023-04-08T22:24:11.527Z,102324.88
2023-04-08T22:26:39.557Z,102329.50
2023-04-08T22:29:07.478Z,102335.03
2023-04-08T22:31:35.753Z,102342.06
2023-04-08T22:34:03.745Z,102336.63
2023-04-08T22:36:33.224Z,102335.03
2023-04-08T22:39:01.297Z,102337.72
2023-04-08T22:41:29.235Z,102346.66
2023-04-08T22:43:57.285Z,102333.59
2023-04-08T22:46:25.484Z,102330.19
2023-04-08T22:48:53.697Z,102331.16
2023-04-08T22:51:22.443Z,102336.50
2023-04-08T22:53:51.786Z,102331.28
2023-04-08T22:56:19.742Z,102332.38
2023-04-08T22:58:47.628Z,102323.66
2023-04-08T23:01:17.206Z,102332.72
2023-04-08T23:03:45.493Z,102325.59
2023-04-08T23:06:13.502Z,102316.88
2023-04-08T23:08:41.441Z,102316.16
2023-04-08T23:11:10.890Z,102306.47
2023-04-08T23:13:38.842Z,102299.47
2023-04-08T23:16:07.256Z,102304.78
2023-04-08T23:18:35.368Z,102300.53
2023-04-08T23:21:03.918Z,102298.72
2023-04-08T23:23:31.958Z,102297.88
2023-04-08T23:26:00.041Z,102301.38
2023-04-08T23:28:29.294Z,102289.91
2023-04-08T23:30:57.279Z,102297.75
2023-04-08T23:33:25.383Z,102292.69
2023-04-08T23:35:53.363Z,102293.53
2023-04-08T23:38:21.278Z,102291.00
2023-04-08T23:40:49.545Z,102294.84
2023-04-08T23:43:17.496Z,102287.81
2023-04-08T23:45:46.800Z,102281.81
2023-04-08T23:48:14.809Z,102274.03
2023-04-08T23:50:42.741Z,102275.75
2023-04-08T23:53:10.853Z,102270.66
2023-04-08T23:55:38.788Z,102263.88
2023-04-08T23:58:06.667Z,102259.78
